Current Conditions for Chicago Metro


Midway Airport
KMDW - Chicago, Illinois, USA
Distance from station: SW 10mi, 16km
Updated: Wed, 28-Feb-2024 8:53am MST
Partly cloudy
Partly cloudy
 Wind from NW
Wind: NW 24 mph , 39 km/h, Gust: 37 mph , 59 km/h
Temperature: 25°F , -4°C
Wind Chill: 10°F , -12°C
Dew Point: 10°F , -12°C
Humidity: 54%
Barometer: 29.89 inHg , 1012.2 hPa
Clouds: Partly cloudy
Visibility: 10 miles , 16 km
Cloud details: Partly cloudy 2800 ft
2024/02/28 15:53 KMDW 281553Z 31021G32KT 10SM SCT028 M04/M12 A2989 RMK AO2 PK WND 32032/1533 SNE51 SLP129 P0000 T10391122

Forecast for Chicago from meteoblue

meteoblue

Images above are clickable. However, you may view Chicago forecasts in a new tab from other weather providers using this LINK.


Water Temperature at Chicago, Illinois

Source: Sea Water Temperature

Sea water temperature


Chicago Radar from National Weather Service

Radar


Chicago Satellite - GOES 16

You may need to Refresh your broswer multiple times for the image to download.


Chicago Webcam from Windy.com

Chicago › North